sensor_id;sensor_type;location;lat;lon;timestamp;P1;durP1;ratioP1;P2;durP2;ratioP2
2848;SDS011;59355;52.416;13.412;2022-09-09T00:01:55;8.30;;;7.60;;
2848;SDS011;59355;52.416;13.412;2022-09-09T00:04:37;7.57;;;6.97;;
2848;SDS011;59355;52.416;13.412;2022-09-09T00:12:27;12.60;;;7.80;;
2848;SDS011;59355;52.416;13.412;2022-09-09T00:15:02;9.23;;;8.30;;
2848;SDS011;59355;52.416;13.412;2022-09-09T00:17:47;8.77;;;7.97;;
2848;SDS011;59355;52.416;13.412;2022-09-09T00:20:24;9.43;;;8.20;;
2848;SDS011;59355;52.416;13.412;2022-09-09T00:25:41;8.37;;;7.57;;
2848;SDS011;59355;52.416;13.412;2022-09-09T00:28:18;8.50;;;7.70;;
2848;SDS011;59355;52.416;13.412;2022-09-09T00:30:46;7.87;;;7.27;;
2848;SDS011;59355;52.416;13.412;2022-09-09T00:33:15;8.10;;;7.40;;
2848;SDS011;59355;52.416;13.412;2022-09-09T00:35:47;8.23;;;7.53;;
2848;SDS011;59355;52.416;13.412;2022-09-09T00:38:19;7.63;;;6.93;;
2848;SDS011;59355;52.416;13.412;2022-09-09T00:40:55;7.37;;;6.77;;
2848;SDS011;59355;52.416;13.412;2022-09-09T00:43:28;7.33;;;6.70;;
2848;SDS011;59355;52.416;13.412;2022-09-09T00:57:31;6.73;;;6.13;;
2848;SDS011;59355;52.416;13.412;2022-09-09T01:00:16;6.73;;;5.93;;
2848;SDS011;59355;52.416;13.412;2022-09-09T01:02:48;6.60;;;6.00;;
2848;SDS011;59355;52.416;13.412;2022-09-09T01:11:28;6.70;;;5.40;;
2848;SDS011;59355;52.416;13.412;2022-09-09T01:14:27;6.37;;;5.77;;
2848;SDS011;59355;52.416;13.412;2022-09-09T01:22:25;7.50;;;6.90;;
2848;SDS011;59355;52.416;13.412;2022-09-09T01:27:51;7.70;;;7.00;;
2848;SDS011;59355;52.416;13.412;2022-09-09T01:30:20;7.43;;;6.73;;
2848;SDS011;59355;52.416;13.412;2022-09-09T01:32:52;8.33;;;7.63;;
2848;SDS011;59355;52.416;13.412;2022-09-09T01:35:38;8.30;;;7.60;;
2848;SDS011;59355;52.416;13.412;2022-09-09T01:38:26;7.90;;;7.20;;
2848;SDS011;59355;52.416;13.412;2022-09-09T01:40:55;8.93;;;8.13;;
2848;SDS011;59355;52.416;13.412;2022-09-09T01:43:21;7.33;;;6.63;;
2848;SDS011;59355;52.416;13.412;2022-09-09T01:45:49;7.57;;;6.90;;
2848;SDS011;59355;52.416;13.412;2022-09-09T01:48:19;13.60;;;7.20;;
2848;SDS011;59355;52.416;13.412;2022-09-09T01:50:47;7.80;;;7.10;;
2848;SDS011;59355;52.416;13.412;2022-09-09T01:53:14;6.70;;;6.10;;
2848;SDS011;59355;52.416;13.412;2022-09-09T01:55:45;7.97;;;7.27;;
2848;SDS011;59355;52.416;13.412;2022-09-09T02:04:41;7.10;;;6.40;;
2848;SDS011;59355;52.416;13.412;2022-09-09T02:07:01;7.97;;;7.20;;
2848;SDS011;59355;52.416;13.412;2022-09-09T02:09:30;7.60;;;7.00;;
2848;SDS011;59355;52.416;13.412;2022-09-09T02:12:01;7.80;;;7.10;;
2848;SDS011;59355;52.416;13.412;2022-09-09T02:14:38;8.93;;;6.70;;
2848;SDS011;59355;52.416;13.412;2022-09-09T02:17:09;7.90;;;7.20;;
2848;SDS011;59355;52.416;13.412;2022-09-09T02:19:37;7.27;;;6.57;;
2848;SDS011;59355;52.416;13.412;2022-09-09T02:22:10;6.90;;;6.30;;
2848;SDS011;59355;52.416;13.412;2022-09-09T02:24:39;7.40;;;6.73;;
2848;SDS011;59355;52.416;13.412;2022-09-09T02:27:06;7.57;;;6.87;;
2848;SDS011;59355;52.416;13.412;2022-09-09T02:29:35;10.73;;;7.70;;
2848;SDS011;59355;52.416;13.412;2022-09-09T02:32:05;7.70;;;6.90;;
2848;SDS011;59355;52.416;13.412;2022-09-09T02:34:34;7.73;;;7.03;;
2848;SDS011;59355;52.416;13.412;2022-09-09T02:37:06;6.83;;;6.13;;
2848;SDS011;59355;52.416;13.412;2022-09-09T02:39:33;10.40;;;7.63;;
2848;SDS011;59355;52.416;13.412;2022-09-09T02:41:59;8.60;;;7.40;;
2848;SDS011;59355;52.416;13.412;2022-09-09T02:44:25;7.23;;;6.53;;
2848;SDS011;59355;52.416;13.412;2022-09-09T02:46:57;8.73;;;7.77;;
2848;SDS011;59355;52.416;13.412;2022-09-09T02:52:08;6.33;;;5.60;;
2848;SDS011;59355;52.416;13.412;2022-09-09T02:54:41;7.47;;;6.83;;
2848;SDS011;59355;52.416;13.412;2022-09-09T02:57:22;7.00;;;6.40;;
2848;SDS011;59355;52.416;13.412;2022-09-09T02:59:51;7.43;;;6.77;;
2848;SDS011;59355;52.416;13.412;2022-09-09T03:02:20;6.70;;;6.10;;
2848;SDS011;59355;52.416;13.412;2022-09-09T03:04:46;7.43;;;6.60;;
2848;SDS011;59355;52.416;13.412;2022-09-09T03:07:16;7.07;;;6.47;;
2848;SDS011;59355;52.416;13.412;2022-09-09T03:09:46;7.00;;;6.40;;
2848;SDS011;59355;52.416;13.412;2022-09-09T03:12:12;7.30;;;6.63;;
2848;SDS011;59355;52.416;13.412;2022-09-09T03:14:38;7.50;;;6.90;;
2848;SDS011;59355;52.416;13.412;2022-09-09T03:17:05;6.70;;;6.10;;
2848;SDS011;59355;52.416;13.412;2022-09-09T03:19:31;7.67;;;6.90;;
2848;SDS011;59355;52.416;13.412;2022-09-09T03:21:58;8.50;;;6.73;;
2848;SDS011;59355;52.416;13.412;2022-09-09T03:24:24;10.13;;;7.10;;
2848;SDS011;59355;52.416;13.412;2022-09-09T03:26:50;8.40;;;6.40;;
2848;SDS011;59355;52.416;13.412;2022-09-09T03:29:16;8.70;;;7.00;;
2848;SDS011;59355;52.416;13.412;2022-09-09T03:31:44;6.63;;;6.13;;
2848;SDS011;59355;52.416;13.412;2022-09-09T03:34:10;7.63;;;6.93;;
2848;SDS011;59355;52.416;13.412;2022-09-09T03:36:36;7.47;;;6.73;;
2848;SDS011;59355;52.416;13.412;2022-09-09T03:39:03;6.97;;;6.37;;
2848;SDS011;59355;52.416;13.412;2022-09-09T03:41:29;7.37;;;6.73;;
2848;SDS011;59355;52.416;13.412;2022-09-09T03:43:56;8.23;;;7.00;;
2848;SDS011;59355;52.416;13.412;2022-09-09T03:46:22;8.57;;;7.73;;
2848;SDS011;59355;52.416;13.412;2022-09-09T03:48:50;7.10;;;6.50;;
2848;SDS011;59355;52.416;13.412;2022-09-09T03:51:17;7.80;;;7.00;;
2848;SDS011;59355;52.416;13.412;2022-09-09T03:53:44;7.60;;;7.00;;
2848;SDS011;59355;52.416;13.412;2022-09-09T03:56:10;7.30;;;6.63;;
2848;SDS011;59355;52.416;13.412;2022-09-09T03:58:36;7.63;;;6.93;;
2848;SDS011;59355;52.416;13.412;2022-09-09T04:01:04;8.10;;;7.30;;
2848;SDS011;59355;52.416;13.412;2022-09-09T04:03:34;6.97;;;6.37;;
2848;SDS011;59355;52.416;13.412;2022-09-09T04:06:02;7.60;;;6.97;;
2848;SDS011;59355;52.416;13.412;2022-09-09T04:08:30;7.07;;;6.47;;
2848;SDS011;59355;52.416;13.412;2022-09-09T04:10:57;7.17;;;6.47;;
2848;SDS011;59355;52.416;13.412;2022-09-09T04:13:23;6.90;;;6.30;;
2848;SDS011;59355;52.416;13.412;2022-09-09T04:15:54;6.90;;;6.30;;
2848;SDS011;59355;52.416;13.412;2022-09-09T04:18:22;6.67;;;6.10;;
2848;SDS011;59355;52.416;13.412;2022-09-09T04:20:49;6.50;;;6.00;;
2848;SDS011;59355;52.416;13.412;2022-09-09T04:23:16;6.60;;;6.00;;
2848;SDS011;59355;52.416;13.412;2022-09-09T04:25:46;8.73;;;6.20;;
2848;SDS011;59355;52.416;13.412;2022-09-09T04:28:17;6.43;;;5.93;;
2848;SDS011;59355;52.416;13.412;2022-09-09T04:30:45;6.17;;;5.67;;
2848;SDS011;59355;52.416;13.412;2022-09-09T04:33:12;7.70;;;7.03;;
2848;SDS011;59355;52.416;13.412;2022-09-09T04:35:38;6.90;;;6.30;;
2848;SDS011;59355;52.416;13.412;2022-09-09T04:38:08;7.17;;;6.47;;
2848;SDS011;59355;52.416;13.412;2022-09-09T04:40:35;6.30;;;5.80;;
2848;SDS011;59355;52.416;13.412;2022-09-09T04:43:01;6.50;;;6.00;;
2848;SDS011;59355;52.416;13.412;2022-09-09T04:45:30;7.00;;;6.40;;
2848;SDS011;59355;52.416;13.412;2022-09-09T04:47:56;7.60;;;6.90;;
2848;SDS011;59355;52.416;13.412;2022-09-09T04:50:22;6.87;;;6.27;;
2848;SDS011;59355;52.416;13.412;2022-09-09T04:52:48;7.17;;;6.53;;
2848;SDS011;59355;52.416;13.412;2022-09-09T04:55:14;7.27;;;6.67;;
2848;SDS011;59355;52.416;13.412;2022-09-09T04:57:41;10.83;;;7.07;;
2848;SDS011;59355;52.416;13.412;2022-09-09T05:00:07;7.13;;;6.43;;
2848;SDS011;59355;52.416;13.412;2022-09-09T05:02:36;6.70;;;6.10;;
2848;SDS011;59355;52.416;13.412;2022-09-09T05:05:04;6.53;;;5.93;;
2848;SDS011;59355;52.416;13.412;2022-09-09T05:07:30;6.17;;;5.50;;
2848;SDS011;59355;52.416;13.412;2022-09-09T05:09:56;7.40;;;6.80;;
2848;SDS011;59355;52.416;13.412;2022-09-09T05:12:23;6.30;;;5.70;;
2848;SDS011;59355;52.416;13.412;2022-09-09T05:14:51;6.80;;;6.10;;
2848;SDS011;59355;52.416;13.412;2022-09-09T05:17:18;5.87;;;5.27;;
2848;SDS011;59355;52.416;13.412;2022-09-09T05:19:44;7.50;;;5.93;;
2848;SDS011;59355;52.416;13.412;2022-09-09T05:22:10;7.03;;;6.30;;
2848;SDS011;59355;52.416;13.412;2022-09-09T05:24:37;6.37;;;5.77;;
2848;SDS011;59355;52.416;13.412;2022-09-09T05:27:04;7.13;;;5.80;;
2848;SDS011;59355;52.416;13.412;2022-09-09T05:29:31;5.60;;;5.20;;
2848;SDS011;59355;52.416;13.412;2022-09-09T05:32:01;6.27;;;5.77;;
2848;SDS011;59355;52.416;13.412;2022-09-09T05:34:27;6.00;;;5.50;;
2848;SDS011;59355;52.416;13.412;2022-09-09T05:36:53;5.63;;;5.23;;
2848;SDS011;59355;52.416;13.412;2022-09-09T05:39:19;6.40;;;5.90;;
2848;SDS011;59355;52.416;13.412;2022-09-09T05:41:45;5.23;;;4.73;;
2848;SDS011;59355;52.416;13.412;2022-09-09T05:44:11;5.63;;;5.17;;
2848;SDS011;59355;52.416;13.412;2022-09-09T05:46:37;6.17;;;5.57;;
2848;SDS011;59355;52.416;13.412;2022-09-09T05:49:03;6.23;;;5.70;;
2848;SDS011;59355;52.416;13.412;2022-09-09T05:51:30;6.47;;;5.97;;
2848;SDS011;59355;52.416;13.412;2022-09-09T05:53:57;7.43;;;5.37;;
2848;SDS011;59355;52.416;13.412;2022-09-09T05:56:27;7.50;;;6.17;;
2848;SDS011;59355;52.416;13.412;2022-09-09T05:58:54;6.80;;;5.43;;
2848;SDS011;59355;52.416;13.412;2022-09-09T06:01:25;10.43;;;6.03;;
2848;SDS011;59355;52.416;13.412;2022-09-09T06:03:52;6.53;;;5.73;;
2848;SDS011;59355;52.416;13.412;2022-09-09T06:06:20;6.97;;;5.30;;
2848;SDS011;59355;52.416;13.412;2022-09-09T06:08:49;7.03;;;5.30;;
2848;SDS011;59355;52.416;13.412;2022-09-09T06:11:18;5.40;;;4.90;;
2848;SDS011;59355;52.416;13.412;2022-09-09T06:13:47;5.53;;;5.00;;
2848;SDS011;59355;52.416;13.412;2022-09-09T06:16:14;6.63;;;5.10;;
2848;SDS011;59355;52.416;13.412;2022-09-09T06:18:42;6.13;;;5.53;;
2848;SDS011;59355;52.416;13.412;2022-09-09T06:21:11;7.13;;;5.70;;
2848;SDS011;59355;52.416;13.412;2022-09-09T06:23:42;6.13;;;5.53;;
2848;SDS011;59355;52.416;13.412;2022-09-09T06:26:17;5.23;;;4.83;;
2848;SDS011;59355;52.416;13.412;2022-09-09T06:28:45;7.23;;;5.13;;
2848;SDS011;59355;52.416;13.412;2022-09-09T06:31:15;5.50;;;5.00;;
2848;SDS011;59355;52.416;13.412;2022-09-09T06:33:47;8.83;;;5.20;;
2848;SDS011;59355;52.416;13.412;2022-09-09T06:36:15;5.13;;;4.63;;
2848;SDS011;59355;52.416;13.412;2022-09-09T06:38:43;6.23;;;5.20;;
2848;SDS011;59355;52.416;13.412;2022-09-09T06:41:10;5.07;;;4.60;;
2848;SDS011;59355;52.416;13.412;2022-09-09T06:43:38;5.63;;;5.10;;
2848;SDS011;59355;52.416;13.412;2022-09-09T06:46:05;10.30;;;4.90;;
2848;SDS011;59355;52.416;13.412;2022-09-09T06:48:36;5.30;;;4.87;;
2848;SDS011;59355;52.416;13.412;2022-09-09T06:51:04;6.00;;;4.60;;
2848;SDS011;59355;52.416;13.412;2022-09-09T06:53:41;4.53;;;4.13;;
2848;SDS011;59355;52.416;13.412;2022-09-09T06:58:44;4.70;;;4.30;;
2848;SDS011;59355;52.416;13.412;2022-09-09T07:01:12;5.50;;;4.23;;
2848;SDS011;59355;52.416;13.412;2022-09-09T07:03:40;4.30;;;3.93;;
2848;SDS011;59355;52.416;13.412;2022-09-09T07:06:13;4.40;;;4.00;;
2848;SDS011;59355;52.416;13.412;2022-09-09T07:08:42;5.00;;;4.43;;
2848;SDS011;59355;52.416;13.412;2022-09-09T07:11:09;4.73;;;4.30;;
2848;SDS011;59355;52.416;13.412;2022-09-09T07:13:36;4.40;;;3.77;;
2848;SDS011;59355;52.416;13.412;2022-09-09T07:16:07;7.80;;;3.97;;
2848;SDS011;59355;52.416;13.412;2022-09-09T07:18:35;4.83;;;4.43;;
2848;SDS011;59355;52.416;13.412;2022-09-09T07:21:02;5.83;;;3.57;;
2848;SDS011;59355;52.416;13.412;2022-09-09T07:23:29;4.60;;;4.20;;
2848;SDS011;59355;52.416;13.412;2022-09-09T07:25:56;5.13;;;3.73;;
2848;SDS011;59355;52.416;13.412;2022-09-09T07:28:23;4.93;;;4.47;;
2848;SDS011;59355;52.416;13.412;2022-09-09T07:30:54;4.80;;;4.00;;
2848;SDS011;59355;52.416;13.412;2022-09-09T07:33:25;4.93;;;3.80;;
2848;SDS011;59355;52.416;13.412;2022-09-09T07:35:51;4.43;;;3.60;;
2848;SDS011;59355;52.416;13.412;2022-09-09T07:38:18;5.33;;;3.30;;
2848;SDS011;59355;52.416;13.412;2022-09-09T07:40:45;4.30;;;3.10;;
2848;SDS011;59355;52.416;13.412;2022-09-09T07:43:12;4.20;;;3.33;;
2848;SDS011;59355;52.416;13.412;2022-09-09T07:45:38;4.70;;;3.97;;
2848;SDS011;59355;52.416;13.412;2022-09-09T07:48:05;4.27;;;3.30;;
2848;SDS011;59355;52.416;13.412;2022-09-09T07:50:32;4.30;;;3.27;;
2848;SDS011;59355;52.416;13.412;2022-09-09T07:52:58;3.50;;;2.77;;
2848;SDS011;59355;52.416;13.412;2022-09-09T07:55:24;5.77;;;3.47;;
2848;SDS011;59355;52.416;13.412;2022-09-09T07:57:51;4.80;;;3.03;;
2848;SDS011;59355;52.416;13.412;2022-09-09T08:00:18;7.47;;;3.63;;
2848;SDS011;59355;52.416;13.412;2022-09-09T08:02:45;3.87;;;2.73;;
2848;SDS011;59355;52.416;13.412;2022-09-09T08:05:12;8.30;;;3.33;;
2848;SDS011;59355;52.416;13.412;2022-09-09T08:07:38;3.70;;;3.17;;
2848;SDS011;59355;52.416;13.412;2022-09-09T08:10:04;3.93;;;2.90;;
2848;SDS011;59355;52.416;13.412;2022-09-09T08:12:32;6.37;;;3.70;;
2848;SDS011;59355;52.416;13.412;2022-09-09T08:14:58;5.57;;;3.30;;
2848;SDS011;59355;52.416;13.412;2022-09-09T08:17:24;3.43;;;2.90;;
2848;SDS011;59355;52.416;13.412;2022-09-09T08:19:50;6.30;;;3.00;;
2848;SDS011;59355;52.416;13.412;2022-09-09T08:22:16;5.80;;;3.10;;
2848;SDS011;59355;52.416;13.412;2022-09-09T08:24:43;3.80;;;3.17;;
2848;SDS011;59355;52.416;13.412;2022-09-09T08:27:11;4.20;;;3.60;;
2848;SDS011;59355;52.416;13.412;2022-09-09T08:29:38;3.80;;;2.87;;
2848;SDS011;59355;52.416;13.412;2022-09-09T08:32:04;4.10;;;2.93;;
2848;SDS011;59355;52.416;13.412;2022-09-09T08:34:32;4.03;;;2.70;;
2848;SDS011;59355;52.416;13.412;2022-09-09T08:36:58;4.43;;;2.70;;
2848;SDS011;59355;52.416;13.412;2022-09-09T08:39:24;4.30;;;2.87;;
2848;SDS011;59355;52.416;13.412;2022-09-09T08:41:59;4.17;;;3.20;;
2848;SDS011;59355;52.416;13.412;2022-09-09T08:52:28;12.63;;;3.10;;
2848;SDS011;59355;52.416;13.412;2022-09-09T08:54:58;3.20;;;2.43;;
2848;SDS011;59355;52.416;13.412;2022-09-09T08:57:29;3.80;;;2.60;;
2848;SDS011;59355;52.416;13.412;2022-09-09T08:59:57;6.03;;;2.80;;
2848;SDS011;59355;52.416;13.412;2022-09-09T09:02:32;8.10;;;3.10;;
2848;SDS011;59355;52.416;13.412;2022-09-09T09:08:14;3.57;;;3.27;;
2848;SDS011;59355;52.416;13.412;2022-09-09T09:10:51;3.47;;;2.70;;
2848;SDS011;59355;52.416;13.412;2022-09-09T09:13:25;5.40;;;2.87;;
2848;SDS011;59355;52.416;13.412;2022-09-09T09:16:01;3.93;;;2.83;;
2848;SDS011;59355;52.416;13.412;2022-09-09T09:18:48;4.63;;;2.80;;
2848;SDS011;59355;52.416;13.412;2022-09-09T09:21:27;2.90;;;2.70;;
2848;SDS011;59355;52.416;13.412;2022-09-09T09:24:00;3.40;;;2.53;;
2848;SDS011;59355;52.416;13.412;2022-09-09T09:26:30;4.13;;;2.50;;
2848;SDS011;59355;52.416;13.412;2022-09-09T09:28:58;2.50;;;2.27;;
2848;SDS011;59355;52.416;13.412;2022-09-09T09:31:26;4.43;;;2.73;;
2848;SDS011;59355;52.416;13.412;2022-09-09T09:33:53;2.67;;;2.03;;
2848;SDS011;59355;52.416;13.412;2022-09-09T09:36:23;3.67;;;2.70;;
2848;SDS011;59355;52.416;13.412;2022-09-09T09:38:59;3.30;;;2.67;;
2848;SDS011;59355;52.416;13.412;2022-09-09T09:41:30;3.63;;;2.60;;
2848;SDS011;59355;52.416;13.412;2022-09-09T09:43:57;4.40;;;2.50;;
2848;SDS011;59355;52.416;13.412;2022-09-09T09:46:24;4.13;;;3.00;;
2848;SDS011;59355;52.416;13.412;2022-09-09T09:49:01;3.47;;;2.33;;
2848;SDS011;59355;52.416;13.412;2022-09-09T09:51:31;5.37;;;2.77;;
2848;SDS011;59355;52.416;13.412;2022-09-09T09:54:07;3.20;;;2.50;;
2848;SDS011;59355;52.416;13.412;2022-09-09T09:56:44;4.37;;;2.53;;
2848;SDS011;59355;52.416;13.412;2022-09-09T09:59:32;3.20;;;2.10;;
2848;SDS011;59355;52.416;13.412;2022-09-09T10:05:06;2.50;;;2.30;;
2848;SDS011;59355;52.416;13.412;2022-09-09T10:08:04;4.37;;;2.43;;
2848;SDS011;59355;52.416;13.412;2022-09-09T10:19:15;3.60;;;2.20;;
2848;SDS011;59355;52.416;13.412;2022-09-09T10:24:23;3.33;;;3.03;;
2848;SDS011;59355;52.416;13.412;2022-09-09T10:27:16;4.87;;;2.43;;
2848;SDS011;59355;52.416;13.412;2022-09-09T10:29:59;2.60;;;2.30;;
2848;SDS011;59355;52.416;13.412;2022-09-09T10:32:46;3.50;;;2.63;;
2848;SDS011;59355;52.416;13.412;2022-09-09T10:35:25;5.37;;;2.87;;
2848;SDS011;59355;52.416;13.412;2022-09-09T10:38:15;4.77;;;2.60;;
2848;SDS011;59355;52.416;13.412;2022-09-09T10:41:11;3.70;;;2.50;;
2848;SDS011;59355;52.416;13.412;2022-09-09T10:46:20;3.17;;;2.40;;
2848;SDS011;59355;52.416;13.412;2022-09-09T10:48:54;3.53;;;2.47;;
2848;SDS011;59355;52.416;13.412;2022-09-09T10:54:36;2.10;;;1.90;;
2848;SDS011;59355;52.416;13.412;2022-09-09T10:59:55;3.80;;;2.57;;
2848;SDS011;59355;52.416;13.412;2022-09-09T11:02:28;3.17;;;1.90;;
2848;SDS011;59355;52.416;13.412;2022-09-09T11:07:51;2.80;;;1.90;;
2848;SDS011;59355;52.416;13.412;2022-09-09T11:13:11;3.73;;;1.93;;
2848;SDS011;59355;52.416;13.412;2022-09-09T11:15:59;3.50;;;1.97;;
2848;SDS011;59355;52.416;13.412;2022-09-09T11:18:36;3.20;;;1.90;;
2848;SDS011;59355;52.416;13.412;2022-09-09T11:21:08;5.07;;;2.10;;
2848;SDS011;59355;52.416;13.412;2022-09-09T11:23:44;2.50;;;1.60;;
2848;SDS011;59355;52.416;13.412;2022-09-09T11:26:17;3.00;;;1.77;;
2848;SDS011;59355;52.416;13.412;2022-09-09T11:28:58;4.67;;;2.50;;
2848;SDS011;59355;52.416;13.412;2022-09-09T11:31:46;4.73;;;2.10;;
2848;SDS011;59355;52.416;13.412;2022-09-09T11:40:14;2.90;;;2.10;;
2848;SDS011;59355;52.416;13.412;2022-09-09T11:42:45;4.33;;;2.07;;
2848;SDS011;59355;52.416;13.412;2022-09-09T11:45:19;2.30;;;1.77;;
2848;SDS011;59355;52.416;13.412;2022-09-09T11:47:52;3.10;;;1.67;;
2848;SDS011;59355;52.416;13.412;2022-09-09T11:52:46;2.27;;;2.03;;
2848;SDS011;59355;52.416;13.412;2022-09-09T11:55:27;2.17;;;1.40;;
2848;SDS011;59355;52.416;13.412;2022-09-09T11:58:00;2.43;;;1.80;;
2848;SDS011;59355;52.416;13.412;2022-09-09T12:03:31;3.53;;;1.93;;
2848;SDS011;59355;52.416;13.412;2022-09-09T12:06:17;3.30;;;1.77;;
2848;SDS011;59355;52.416;13.412;2022-09-09T12:08:53;3.70;;;2.30;;
2848;SDS011;59355;52.416;13.412;2022-09-09T12:11:27;2.83;;;1.40;;
2848;SDS011;59355;52.416;13.412;2022-09-09T12:13:56;4.70;;;2.07;;
2848;SDS011;59355;52.416;13.412;2022-09-09T12:16:30;2.87;;;2.10;;
2848;SDS011;59355;52.416;13.412;2022-09-09T12:19:14;3.43;;;1.73;;
2848;SDS011;59355;52.416;13.412;2022-09-09T12:21:49;3.30;;;1.73;;
2848;SDS011;59355;52.416;13.412;2022-09-09T12:24:37;2.40;;;1.63;;
2848;SDS011;59355;52.416;13.412;2022-09-09T12:27:36;2.33;;;1.83;;
2848;SDS011;59355;52.416;13.412;2022-09-09T12:30:10;4.97;;;2.23;;
2848;SDS011;59355;52.416;13.412;2022-09-09T12:32:39;3.00;;;1.50;;
2848;SDS011;59355;52.416;13.412;2022-09-09T12:35:27;2.90;;;1.40;;
2848;SDS011;59355;52.416;13.412;2022-09-09T12:40:30;4.27;;;1.33;;
2848;SDS011;59355;52.416;13.412;2022-09-09T12:43:00;3.07;;;1.43;;
2848;SDS011;59355;52.416;13.412;2022-09-09T12:45:31;2.57;;;1.60;;
2848;SDS011;59355;52.416;13.412;2022-09-09T12:48:06;1.83;;;1.10;;
2848;SDS011;59355;52.416;13.412;2022-09-09T12:50:38;3.60;;;1.83;;
2848;SDS011;59355;52.416;13.412;2022-09-09T12:53:24;4.33;;;1.83;;
2848;SDS011;59355;52.416;13.412;2022-09-09T12:58:26;2.10;;;1.40;;
2848;SDS011;59355;52.416;13.412;2022-09-09T13:00:54;2.90;;;1.60;;
2848;SDS011;59355;52.416;13.412;2022-09-09T13:03:21;1.73;;;1.43;;
2848;SDS011;59355;52.416;13.412;2022-09-09T13:05:48;2.63;;;1.63;;
2848;SDS011;59355;52.416;13.412;2022-09-09T13:08:15;2.33;;;1.60;;
2848;SDS011;59355;52.416;13.412;2022-09-09T13:13:30;2.77;;;1.67;;
2848;SDS011;59355;52.416;13.412;2022-09-09T13:16:01;1.80;;;1.43;;
2848;SDS011;59355;52.416;13.412;2022-09-09T13:18:33;4.23;;;1.50;;
2848;SDS011;59355;52.416;13.412;2022-09-09T13:21:01;2.40;;;1.50;;
2848;SDS011;59355;52.416;13.412;2022-09-09T13:23:32;2.80;;;1.80;;
2848;SDS011;59355;52.416;13.412;2022-09-09T13:26:01;3.83;;;1.40;;
2848;SDS011;59355;52.416;13.412;2022-09-09T13:28:47;2.23;;;1.60;;
2848;SDS011;59355;52.416;13.412;2022-09-09T13:31:21;1.63;;;1.30;;
2848;SDS011;59355;52.416;13.412;2022-09-09T13:33:49;2.67;;;1.70;;
2848;SDS011;59355;52.416;13.412;2022-09-09T13:36:15;1.90;;;1.40;;
2848;SDS011;59355;52.416;13.412;2022-09-09T13:41:20;2.33;;;1.57;;
2848;SDS011;59355;52.416;13.412;2022-09-09T13:43:49;6.43;;;1.70;;
2848;SDS011;59355;52.416;13.412;2022-09-09T13:46:35;4.27;;;1.80;;
2848;SDS011;59355;52.416;13.412;2022-09-09T13:51:41;2.20;;;1.73;;
2848;SDS011;59355;52.416;13.412;2022-09-09T13:54:13;4.03;;;2.37;;
2848;SDS011;59355;52.416;13.412;2022-09-09T13:56:40;6.03;;;2.07;;
2848;SDS011;59355;52.416;13.412;2022-09-09T13:59:11;3.73;;;2.27;;
2848;SDS011;59355;52.416;13.412;2022-09-09T14:01:39;2.90;;;2.20;;
2848;SDS011;59355;52.416;13.412;2022-09-09T14:04:06;3.70;;;2.40;;
2848;SDS011;59355;52.416;13.412;2022-09-09T14:06:37;4.47;;;2.00;;
2848;SDS011;59355;52.416;13.412;2022-09-09T14:09:10;3.37;;;2.03;;
2848;SDS011;59355;52.416;13.412;2022-09-09T14:11:37;3.93;;;1.63;;
2848;SDS011;59355;52.416;13.412;2022-09-09T14:14:03;4.00;;;2.23;;
2848;SDS011;59355;52.416;13.412;2022-09-09T14:16:30;3.97;;;1.77;;
2848;SDS011;59355;52.416;13.412;2022-09-09T14:18:56;6.43;;;1.87;;
2848;SDS011;59355;52.416;13.412;2022-09-09T14:21:23;4.73;;;1.90;;
2848;SDS011;59355;52.416;13.412;2022-09-09T14:23:49;4.10;;;2.33;;
2848;SDS011;59355;52.416;13.412;2022-09-09T14:26:15;3.63;;;2.13;;
2848;SDS011;59355;52.416;13.412;2022-09-09T14:28:44;3.83;;;1.80;;
2848;SDS011;59355;52.416;13.412;2022-09-09T14:31:11;3.00;;;1.80;;
2848;SDS011;59355;52.416;13.412;2022-09-09T14:33:39;2.20;;;2.00;;
2848;SDS011;59355;52.416;13.412;2022-09-09T14:36:05;2.20;;;1.80;;
2848;SDS011;59355;52.416;13.412;2022-09-09T14:38:35;3.57;;;2.40;;
2848;SDS011;59355;52.416;13.412;2022-09-09T14:41:07;4.13;;;2.00;;
2848;SDS011;59355;52.416;13.412;2022-09-09T14:43:37;4.47;;;1.70;;
2848;SDS011;59355;52.416;13.412;2022-09-09T14:46:07;6.83;;;2.00;;
2848;SDS011;59355;52.416;13.412;2022-09-09T14:48:35;2.83;;;1.70;;
2848;SDS011;59355;52.416;13.412;2022-09-09T14:51:05;3.70;;;1.90;;
2848;SDS011;59355;52.416;13.412;2022-09-09T14:53:36;2.37;;;1.40;;
2848;SDS011;59355;52.416;13.412;2022-09-09T14:56:10;3.03;;;2.00;;
2848;SDS011;59355;52.416;13.412;2022-09-09T14:58:41;3.53;;;1.50;;
2848;SDS011;59355;52.416;13.412;2022-09-09T15:01:09;2.67;;;1.80;;
2848;SDS011;59355;52.416;13.412;2022-09-09T15:03:37;5.10;;;1.87;;
2848;SDS011;59355;52.416;13.412;2022-09-09T15:06:05;2.43;;;2.23;;
2848;SDS011;59355;52.416;13.412;2022-09-09T15:08:36;2.63;;;1.50;;
2848;SDS011;59355;52.416;13.412;2022-09-09T15:11:03;2.20;;;1.80;;
2848;SDS011;59355;52.416;13.412;2022-09-09T15:13:30;2.20;;;1.73;;
2848;SDS011;59355;52.416;13.412;2022-09-09T15:16:02;3.53;;;1.73;;
2848;SDS011;59355;52.416;13.412;2022-09-09T15:18:34;2.70;;;1.73;;
2848;SDS011;59355;52.416;13.412;2022-09-09T15:21:02;2.97;;;1.60;;
2848;SDS011;59355;52.416;13.412;2022-09-09T15:23:33;2.30;;;1.50;;
2848;SDS011;59355;52.416;13.412;2022-09-09T15:26:00;3.03;;;1.43;;
2848;SDS011;59355;52.416;13.412;2022-09-09T15:28:27;3.70;;;1.60;;
2848;SDS011;59355;52.416;13.412;2022-09-09T15:30:53;3.83;;;1.60;;
2848;SDS011;59355;52.416;13.412;2022-09-09T15:33:20;1.93;;;1.70;;
2848;SDS011;59355;52.416;13.412;2022-09-09T15:35:47;3.47;;;1.50;;
2848;SDS011;59355;52.416;13.412;2022-09-09T15:38:15;2.30;;;1.60;;
2848;SDS011;59355;52.416;13.412;2022-09-09T15:40:43;2.37;;;1.57;;
2848;SDS011;59355;52.416;13.412;2022-09-09T15:43:09;2.63;;;1.70;;
2848;SDS011;59355;52.416;13.412;2022-09-09T15:45:36;4.00;;;1.50;;
2848;SDS011;59355;52.416;13.412;2022-09-09T15:48:03;2.30;;;1.47;;
2848;SDS011;59355;52.416;13.412;2022-09-09T15:50:29;3.07;;;1.80;;
2848;SDS011;59355;52.416;13.412;2022-09-09T15:52:58;3.83;;;1.63;;
2848;SDS011;59355;52.416;13.412;2022-09-09T15:55:25;3.13;;;1.90;;
2848;SDS011;59355;52.416;13.412;2022-09-09T15:57:51;3.80;;;2.00;;
2848;SDS011;59355;52.416;13.412;2022-09-09T16:00:18;3.73;;;1.83;;
2848;SDS011;59355;52.416;13.412;2022-09-09T16:02:46;2.80;;;1.77;;
2848;SDS011;59355;52.416;13.412;2022-09-09T16:05:13;2.37;;;1.57;;
2848;SDS011;59355;52.416;13.412;2022-09-09T16:07:39;1.90;;;1.33;;
2848;SDS011;59355;52.416;13.412;2022-09-09T16:10:08;2.73;;;1.67;;
2848;SDS011;59355;52.416;13.412;2022-09-09T16:12:35;3.93;;;1.57;;
2848;SDS011;59355;52.416;13.412;2022-09-09T16:15:01;3.43;;;2.00;;
2848;SDS011;59355;52.416;13.412;2022-09-09T16:17:27;3.00;;;1.33;;
2848;SDS011;59355;52.416;13.412;2022-09-09T16:19:53;3.10;;;1.80;;
2848;SDS011;59355;52.416;13.412;2022-09-09T16:22:20;2.40;;;1.53;;
2848;SDS011;59355;52.416;13.412;2022-09-09T16:24:46;2.97;;;1.70;;
2848;SDS011;59355;52.416;13.412;2022-09-09T16:27:12;5.17;;;2.00;;
2848;SDS011;59355;52.416;13.412;2022-09-09T16:29:38;2.20;;;1.60;;
2848;SDS011;59355;52.416;13.412;2022-09-09T16:32:04;2.90;;;1.70;;
2848;SDS011;59355;52.416;13.412;2022-09-09T16:34:30;2.80;;;2.07;;
2848;SDS011;59355;52.416;13.412;2022-09-09T16:36:56;2.67;;;1.97;;
2848;SDS011;59355;52.416;13.412;2022-09-09T16:39:22;4.67;;;1.60;;
2848;SDS011;59355;52.416;13.412;2022-09-09T16:41:48;3.50;;;1.60;;
2848;SDS011;59355;52.416;13.412;2022-09-09T16:44:15;4.10;;;1.83;;
2848;SDS011;59355;52.416;13.412;2022-09-09T16:46:46;5.47;;;1.87;;
2848;SDS011;59355;52.416;13.412;2022-09-09T16:49:14;2.17;;;1.50;;
2848;SDS011;59355;52.416;13.412;2022-09-09T16:51:42;3.37;;;1.80;;
2848;SDS011;59355;52.416;13.412;2022-09-09T16:54:10;4.60;;;2.13;;
2848;SDS011;59355;52.416;13.412;2022-09-09T16:56:38;5.80;;;2.27;;